This is the latest recevied weather packets stored in our database for station/object R1CBW-13. If no packets are shown the sender has not sent any weather packets the latest 1 day(s).
| Time | Temp. | Humidity | Pressure | Rain* | Wind** | Luminosity | Snow |
|---|---|---|---|---|---|---|---|
| 1778046928 | 7.22° C | 60% | 1008.9 hPa | 0 mm | - | - | - |
| 1778046868 | 7.22° C | 60% | 1009 hPa | 0 mm | - | - | - |
| 1778046808 | 7.22° C | 60% | 1008.9 hPa | 0 mm | - | - | - |
| 1778046688 | 7.78° C | 58% | 1008.9 hPa | 0 mm | - | - | - |
| 1778046628 | 7.78° C | 58% | 1008.7 hPa | 0 mm | - | - | - |
| 1778046568 | 7.78° C | 58% | 1008.7 hPa | 0 mm | - | - | - |
| 1778046508 | 7.22° C | 59% | 1008.7 hPa | 0 mm | - | - | - |
| 1778046388 | 7.78° C | 57% | 1008.7 hPa | 0 mm | - | - | - |
| 1778046328 | 7.78° C | 59% | 1008.8 hPa | 0 mm | - | - | - |
| 1778046268 | 7.22° C | 59% | 1008.7 hPa | 0 mm | - | - | - |
| 1778046208 | 7.22° C | 60% | 1008.8 hPa | 0 mm | - | - | - |
| 1778046148 | 7.22° C | 59% | 1008.7 hPa | 0 mm | - | - | - |
| 1778046088 | 7.22° C | 60% | 1008.8 hPa | 0 mm | - | - | - |
| 1778046028 | 7.22° C | 60% | 1008.7 hPa | 0 mm | - | - | - |
| 1778045968 | 6.67° C | 60% | 1008.8 hPa | 0 mm | - | - | - |
| 1778045908 | 8.33° C | 56% | 1008.7 hPa | 0 mm | - | - | - |
| 1778045848 | 8.33° C | 57% | 1008.6 hPa | 0 mm | - | - | - |
| 1778045788 | 7.78° C | 58% | 1008.7 hPa | 0 mm | - | - | - |
| 1778045728 | 8.33° C | 58% | 1008.6 hPa | 0 mm | - | - | - |
| 1778045668 | 7.22° C | 59% | 1008.5 hPa | 0 mm | - | - | - |
| 1778045608 | 7.78° C | 58% | 1008.5 hPa | 0 mm | - | - | - |
| 1778045548 | 7.78° C | 58% | 1008.5 hPa | 0 mm | - | - | - |
| 1778045488 | 7.78° C | 58% | 1008.5 hPa | 0 mm | - | - | - |
| 1778045428 | 7.22° C | 58% | 1008.6 hPa | 0 mm | - | - | - |
| 1778045368 | 7.22° C | 57% | 1008.6 hPa | 0 mm | - | - | - |
* Rain latest hour (hover to see other rain measurements)
** Current wind speed in m/s (hover to see current wind gust speed)